Time;durP1;ratioP1;P1;durP2;ratioP2;P2;SDS_P1;SDS_P2;PMS_P1;PMS_P2;Temp;Humidity;BMP_temperature;BMP_pressure;BME280_temperature;BME280_humidity;BME280_pressure;Samples;Min_cycle;Max_cycle;Signal;HPM_P1;HPM_P2
2022/10/18 00:01:11;;;;;;;7.87;5.53;;;;;;;;;;5115815;28;20179;-67
2022/10/18 00:03:37;;;;;;;7.47;5.60;;;;;;;;;;5134746;28;20171;-67
2022/10/18 00:06:03;;;;;;;6.63;5.47;;;;;;;;;;5116678;28;20199;-67
2022/10/18 00:08:30;;;;;;;9.23;5.47;;;;;;;;;;5135060;28;20667;-65
2022/10/18 00:10:56;;;;;;;7.70;5.70;;;;;;;;;;5134668;28;20195;-66
2022/10/18 00:13:22;;;;;;;7.73;5.40;;;;;;;;;;5134480;28;20172;-66
2022/10/18 00:15:52;;;;;;;7.33;5.27;;;;;;;;;;5115949;28;20290;-67
2022/10/18 00:18:18;;;;;;;6.00;5.33;;;;;;;;;;5134134;28;20171;-66
2022/10/18 00:20:44;;;;;;;8.50;5.30;;;;;;;;;;5134358;28;20183;-67
2022/10/18 00:23:10;;;;;;;6.53;5.17;;;;;;;;;;5115863;28;20183;-66
2022/10/18 00:25:36;;;;;;;6.03;5.43;;;;;;;;;;5115861;28;20225;-66
2022/10/18 00:28:02;;;;;;;9.13;6.07;;;;;;;;;;5134273;28;20667;-67
2022/10/18 00:30:28;;;;;;;7.67;5.63;;;;;;;;;;5115747;28;20293;-66
2022/10/18 00:32:54;;;;;;;8.53;5.03;;;;;;;;;;5134469;28;20172;-66
2022/10/18 00:35:20;;;;;;;10.50;6.17;;;;;;;;;;5134257;28;20260;-66
2022/10/18 00:37:46;;;;;;;9.37;5.50;;;;;;;;;;5134121;28;20232;-66
2022/10/18 00:40:12;;;;;;;10.97;6.00;;;;;;;;;;5134243;28;20172;-67
2022/10/18 00:42:38;;;;;;;6.33;5.70;;;;;;;;;;5115664;28;20274;-65
2022/10/18 00:45:04;;;;;;;11.93;6.07;;;;;;;;;;5134545;28;20191;-66
2022/10/18 00:47:30;;;;;;;8.33;6.20;;;;;;;;;;5134091;28;20179;-67
2022/10/18 00:49:57;;;;;;;9.23;5.53;;;;;;;;;;5136255;27;20168;-66
2022/10/18 00:52:27;;;;;;;9.53;5.93;;;;;;;;;;5137948;27;20199;-67
2022/10/18 00:54:54;;;;;;;10.03;6.10;;;;;;;;;;5138022;27;20200;-67
2022/10/18 00:57:20;;;;;;;7.23;5.87;;;;;;;;;;5137895;27;20172;-68
2022/10/18 00:59:46;;;;;;;9.80;6.23;;;;;;;;;;5119080;27;20179;-67
2022/10/18 01:02:16;;;;;;;14.43;6.73;;;;;;;;;;5119065;27;20531;-68
2022/10/18 01:04:42;;;;;;;12.00;6.90;;;;;;;;;;5119002;27;20564;-67
2022/10/18 01:07:21;;;;;;;10.83;6.77;;;;;;;;;;5118956;27;20191;-67
2022/10/18 01:09:53;;;;;;;9.33;6.67;;;;;;;;;;5119119;27;20644;-67
2022/10/18 01:12:25;;;;;;;10.03;6.20;;;;;;;;;;5119018;27;20207;-67
2022/10/18 01:15:10;;;;;;;8.53;6.60;;;;;;;;;;5137452;27;20223;-66
2022/10/18 01:17:56;;;;;;;9.40;7.33;;;;;;;;;;5118795;27;20228;-67
2022/10/18 01:20:34;;;;;;;10.63;6.30;;;;;;;;;;5119056;27;20176;-68
2022/10/18 01:23:05;;;;;;;11.37;6.80;;;;;;;;;;5118878;27;20167;-69
2022/10/18 01:25:43;;;;;;;9.40;6.67;;;;;;;;;;5137311;27;20192;-67
2022/10/18 01:28:21;;;;;;;13.07;6.73;;;;;;;;;;5118629;27;20555;-68
2022/10/18 01:30:50;;;;;;;10.10;6.57;;;;;;;;;;5137000;27;20230;-67
2022/10/18 01:33:16;;;;;;;9.97;6.77;;;;;;;;;;5118534;27;20180;-68
2022/10/18 01:35:47;;;;;;;11.03;7.03;;;;;;;;;;5136920;27;20203;-67
2022/10/18 01:38:16;;;;;;;12.50;6.43;;;;;;;;;;5118584;27;20263;-68
2022/10/18 01:40:43;;;;;;;10.17;6.87;;;;;;;;;;5118585;27;20180;-67
2022/10/18 01:43:10;;;;;;;12.13;6.70;;;;;;;;;;5118421;27;20188;-67
2022/10/18 01:45:36;;;;;;;10.30;6.80;;;;;;;;;;5137030;27;20192;-69
2022/10/18 01:48:03;;;;;;;8.63;6.80;;;;;;;;;;5118209;27;20184;-67
2022/10/18 01:50:30;;;;;;;14.93;6.87;;;;;;;;;;5136849;27;22067;-67
2022/10/18 01:52:56;;;;;;;12.93;7.37;;;;;;;;;;5118212;27;20176;-66
2022/10/18 01:55:27;;;;;;;10.23;7.37;;;;;;;;;;5136568;27;20202;-67
2022/10/18 01:58:05;;;;;;;9.70;7.00;;;;;;;;;;5136734;27;20608;-67
2022/10/18 02:00:36;;;;;;;9.60;6.80;;;;;;;;;;5117584;27;20175;-67
2022/10/18 02:03:15;;;;;;;11.13;7.20;;;;;;;;;;5118114;27;20180;-67
2022/10/18 02:06:05;;;;;;;14.93;8.00;;;;;;;;;;5136404;27;20191;-67
2022/10/18 02:08:30;;;;;;;11.10;7.23;;;;;;;;;;5118063;27;20224;-67
2022/10/18 02:11:00;;;;;;;11.30;7.27;;;;;;;;;;5136156;27;20290;-67
2022/10/18 02:13:28;;;;;;;11.93;7.10;;;;;;;;;;5118028;27;20179;-67
2022/10/18 02:15:57;;;;;;;13.03;7.47;;;;;;;;;;5135898;27;20285;-67
2022/10/18 02:18:25;;;;;;;13.07;7.77;;;;;;;;;;5136248;27;20178;-67
2022/10/18 02:20:51;;;;;;;11.33;7.70;;;;;;;;;;5136091;27;20180;-67
2022/10/18 02:23:21;;;;;;;19.37;7.47;;;;;;;;;;5117580;27;20267;-69
2022/10/18 02:25:47;;;;;;;14.73;7.63;;;;;;;;;;5117589;27;20204;-66
2022/10/18 02:28:13;;;;;;;9.57;8.30;;;;;;;;;;5136307;27;20172;-67
2022/10/18 02:30:54;;;;;;;12.63;7.87;;;;;;;;;;5135881;27;20269;-66
2022/10/18 02:33:30;;;;;;;13.87;9.17;;;;;;;;;;5135742;27;20199;-67
2022/10/18 02:36:01;;;;;;;15.17;8.50;;;;;;;;;;5135425;27;20238;-66
2022/10/18 02:38:28;;;;;;;11.50;8.70;;;;;;;;;;5135822;27;20164;-67
2022/10/18 02:40:54;;;;;;;14.30;9.30;;;;;;;;;;5135641;27;20172;-66
2022/10/18 02:43:23;;;;;;;16.67;9.70;;;;;;;;;;5117175;27;20190;-66
2022/10/18 02:45:49;;;;;;;11.90;9.73;;;;;;;;;;5135467;27;20333;-68
2022/10/18 02:48:15;;;;;;;13.47;9.20;;;;;;;;;;5117056;27;20193;-67
2022/10/18 02:50:41;;;;;;;13.47;10.37;;;;;;;;;;5135838;27;20200;-68
2022/10/18 02:53:07;;;;;;;14.10;9.57;;;;;;;;;;5116985;27;20547;-67
2022/10/18 02:55:33;;;;;;;16.00;9.40;;;;;;;;;;5116896;27;20686;-68
2022/10/18 02:57:58;;;;;;;14.23;9.57;;;;;;;;;;5116882;27;20675;-67
2022/10/18 03:00:24;;;;;;;14.30;9.60;;;;;;;;;;5135306;27;20203;-68
2022/10/18 03:02:52;;;;;;;14.17;9.60;;;;;;;;;;5116730;27;20175;-67
2022/10/18 03:05:18;;;;;;;12.17;9.40;;;;;;;;;;5116478;27;20574;-68
2022/10/18 03:07:44;;;;;;;14.47;9.60;;;;;;;;;;5135476;27;20175;-67
2022/10/18 03:10:10;;;;;;;11.93;9.43;;;;;;;;;;5135071;27;20171;-68
2022/10/18 03:12:36;;;;;;;14.60;10.23;;;;;;;;;;5115751;27;20207;-67
2022/10/18 03:15:02;;;;;;;13.70;10.43;;;;;;;;;;5134973;27;20255;-67
2022/10/18 03:17:28;;;;;;;20.07;11.17;;;;;;;;;;5116348;27;20659;-67
2022/10/18 03:19:54;;;;;;;17.50;10.97;;;;;;;;;;5135077;27;20171;-67
2022/10/18 03:22:20;;;;;;;17.13;11.90;;;;;;;;;;5134924;27;20190;-67
2022/10/18 03:24:46;;;;;;;13.87;10.93;;;;;;;;;;5134773;27;20195;-66
2022/10/18 03:27:12;;;;;;;15.23;11.57;;;;;;;;;;5116868;27;20231;-66
2022/10/18 03:29:38;;;;;;;16.83;11.87;;;;;;;;;;5116234;27;20176;-67
2022/10/18 03:32:04;;;;;;;18.23;12.13;;;;;;;;;;5134567;27;20208;-66
2022/10/18 03:34:30;;;;;;;19.73;13.77;;;;;;;;;;5115988;27;20187;-67
2022/10/18 03:36:56;;;;;;;15.40;12.50;;;;;;;;;;5134925;27;20172;-66
2022/10/18 03:39:22;;;;;;;16.93;12.40;;;;;;;;;;5134704;27;20194;-67
2022/10/18 03:41:48;;;;;;;18.63;12.50;;;;;;;;;;5115910;27;20636;-67
2022/10/18 03:44:14;;;;;;;20.87;12.77;;;;;;;;;;5134372;27;20254;-67
2022/10/18 03:46:40;;;;;;;18.13;12.73;;;;;;;;;;5134191;27;20199;-67
2022/10/18 03:49:06;;;;;;;23.00;13.87;;;;;;;;;;5135905;27;20172;-67
2022/10/18 03:51:32;;;;;;;20.87;13.67;;;;;;;;;;5115917;27;20211;-70
2022/10/18 03:53:58;;;;;;;15.80;12.67;;;;;;;;;;5134532;27;20637;-66
2022/10/18 03:56:24;;;;;;;24.77;13.47;;;;;;;;;;5134600;27;20236;-67
2022/10/18 03:58:50;;;;;;;18.47;13.73;;;;;;;;;;5134567;27;20220;-66
2022/10/18 04:01:16;;;;;;;21.93;13.23;;;;;;;;;;5116069;28;20184;-66
2022/10/18 04:03:42;;;;;;;18.07;13.10;;;;;;;;;;5134865;28;20176;-67
2022/10/18 04:06:08;;;;;;;21.27;14.17;;;;;;;;;;5134407;28;20675;-67
2022/10/18 04:08:34;;;;;;;22.07;14.20;;;;;;;;;;5115797;28;20175;-66
2022/10/18 04:11:04;;;;;;;20.70;14.67;;;;;;;;;;5134235;28;20229;-65
2022/10/18 04:13:30;;;;;;;17.67;13.63;;;;;;;;;;5134071;28;20176;-68
2022/10/18 04:15:56;;;;;;;23.40;14.60;;;;;;;;;;5115465;28;20705;-66
2022/10/18 04:18:22;;;;;;;20.77;14.53;;;;;;;;;;5134000;28;20198;-66
2022/10/18 04:20:48;;;;;;;21.50;13.97;;;;;;;;;;5115718;28;20179;-66
2022/10/18 04:23:13;;;;;;;23.70;16.17;;;;;;;;;;5116642;27;20278;-66
2022/10/18 04:25:39;;;;;;;22.93;15.10;;;;;;;;;;5119875;27;20200;-66
2022/10/18 04:28:06;;;;;;;21.93;15.37;;;;;;;;;;5119840;27;20182;-66
2022/10/18 04:30:32;;;;;;;23.27;15.23;;;;;;;;;;5138194;27;20236;-67
2022/10/18 04:32:57;;;;;;;24.97;16.00;;;;;;;;;;5138582;27;20526;-67
2022/10/18 04:35:24;;;;;;;27.07;17.13;;;;;;;;;;5138121;27;20203;-66
2022/10/18 04:37:51;;;;;;;26.73;17.93;;;;;;;;;;5120259;27;20639;-66
2022/10/18 04:40:18;;;;;;;26.70;18.23;;;;;;;;;;5119600;27;20182;-66
2022/10/18 04:42:44;;;;;;;28.20;18.70;;;;;;;;;;5119938;27;20172;-69
2022/10/18 04:45:10;;;;;;;27.43;18.47;;;;;;;;;;5120399;27;20187;-67
2022/10/18 04:47:36;;;;;;;28.47;19.60;;;;;;;;;;5138322;27;20193;-66
2022/10/18 04:50:02;;;;;;;33.33;20.33;;;;;;;;;;5138243;27;20639;-66
2022/10/18 04:52:28;;;;;;;28.50;18.87;;;;;;;;;;5119559;27;20211;-67
2022/10/18 04:54:54;;;;;;;27.40;19.03;;;;;;;;;;5119419;27;20698;-66
2022/10/18 04:57:20;;;;;;;23.70;19.27;;;;;;;;;;5137992;27;20321;-66
2022/10/18 04:59:46;;;;;;;30.30;20.70;;;;;;;;;;5137811;27;20199;-67
2022/10/18 05:02:12;;;;;;;28.73;20.60;;;;;;;;;;5119038;27;20176;-67
2022/10/18 05:04:38;;;;;;;30.43;23.47;;;;;;;;;;5119020;27;20179;-66
2022/10/18 05:07:05;;;;;;;30.27;21.40;;;;;;;;;;5137778;27;20179;-67
2022/10/18 05:09:31;;;;;;;35.03;22.67;;;;;;;;;;5138124;27;20175;-66
2022/10/18 05:11:57;;;;;;;29.03;21.93;;;;;;;;;;5137998;27;20227;-67
2022/10/18 05:14:23;;;;;;;34.20;22.13;;;;;;;;;;5139891;27;20175;-66
2022/10/18 05:16:49;;;;;;;29.00;21.70;;;;;;;;;;5142482;27;20176;-67
2022/10/18 05:19:15;;;;;;;32.37;23.40;;;;;;;;;;5139414;27;20172;-67
2022/10/18 05:21:41;;;;;;;31.57;22.13;;;;;;;;;;5140708;27;20243;-67
2022/10/18 05:24:07;;;;;;;27.10;23.10;;;;;;;;;;5130958;27;20635;-66
2022/10/18 05:26:33;;;;;;;28.23;22.27;;;;;;;;;;5148063;27;20226;-66
2022/10/18 05:28:59;;;;;;;29.27;22.97;;;;;;;;;;5146662;27;20240;-67
2022/10/18 05:31:25;;;;;;;35.33;23.00;;;;;;;;;;5145114;27;20226;-67
2022/10/18 05:33:51;;;;;;;30.37;22.77;;;;;;;;;;5118816;27;20187;-67
2022/10/18 05:36:17;;;;;;;28.07;22.83;;;;;;;;;;5117412;27;20207;-67
2022/10/18 05:38:44;;;;;;;29.77;23.13;;;;;;;;;;5136888;27;20172;-67
2022/10/18 05:41:10;;;;;;;32.37;23.13;;;;;;;;;;5136910;27;20172;-66
2022/10/18 05:43:36;;;;;;;28.10;22.37;;;;;;;;;;5118501;27;20235;-67
2022/10/18 05:46:03;;;;;;;29.20;22.73;;;;;;;;;;5136734;27;20289;-67
2022/10/18 05:48:29;;;;;;;30.00;22.00;;;;;;;;;;5118439;27;20319;-69
2022/10/18 05:50:58;;;;;;;35.10;23.13;;;;;;;;;;5118109;27;20679;-67
2022/10/18 05:53:24;;;;;;;31.67;23.20;;;;;;;;;;5118251;27;20176;-67
2022/10/18 05:55:50;;;;;;;35.27;23.77;;;;;;;;;;5118147;27;20298;-67
2022/10/18 05:58:16;;;;;;;29.67;23.47;;;;;;;;;;5136404;27;20180;-67
2022/10/18 06:00:42;;;;;;;35.33;23.60;;;;;;;;;;5117953;27;20179;-65
2022/10/18 06:03:07;;;;;;;32.03;23.60;;;;;;;;;;5136263;27;20306;-67
2022/10/18 06:05:33;;;;;;;31.97;23.80;;;;;;;;;;5117985;27;20211;-67
2022/10/18 06:07:59;;;;;;;38.20;23.67;;;;;;;;;;5136373;27;20184;-67
2022/10/18 06:10:25;;;;;;;36.77;24.73;;;;;;;;;;5136243;27;20168;-68
2022/10/18 06:12:51;;;;;;;33.33;24.53;;;;;;;;;;5136168;27;20178;-66
2022/10/18 06:15:17;;;;;;;33.30;26.40;;;;;;;;;;5136249;27;20188;-67
2022/10/18 06:17:43;;;;;;;38.33;26.63;;;;;;;;;;5136221;27;20168;-68
2022/10/18 06:20:10;;;;;;;41.97;28.80;;;;;;;;;;5117698;27;20240;-66
2022/10/18 06:22:35;;;;;;;41.33;29.47;;;;;;;;;;5117686;27;20224;-68
2022/10/18 06:25:01;;;;;;;38.57;29.93;;;;;;;;;;5117610;27;20207;-66
2022/10/18 06:27:27;;;;;;;41.83;30.30;;;;;;;;;;5117659;27;20176;-67
2022/10/18 06:29:53;;;;;;;40.80;30.63;;;;;;;;;;5136143;27;20176;-68
2022/10/18 06:32:19;;;;;;;42.30;29.50;;;;;;;;;;5135769;27;20676;-67
2022/10/18 06:34:45;;;;;;;41.50;30.13;;;;;;;;;;5135839;27;20295;-67
2022/10/18 06:37:11;;;;;;;42.57;28.37;;;;;;;;;;5136061;27;20167;-67
2022/10/18 06:39:37;;;;;;;44.97;30.47;;;;;;;;;;5135855;27;20172;-67
2022/10/18 06:42:03;;;;;;;41.33;29.47;;;;;;;;;;5117247;27;20180;-67
2022/10/18 06:44:30;;;;;;;42.27;30.10;;;;;;;;;;5135730;27;20175;-67
2022/10/18 06:46:56;;;;;;;38.83;29.37;;;;;;;;;;5117127;27;20270;-65
2022/10/18 06:49:22;;;;;;;44.67;28.90;;;;;;;;;;5117378;27;20199;-68
2022/10/18 06:51:48;;;;;;;41.70;28.93;;;;;;;;;;5135787;27;20210;-67
2022/10/18 06:54:14;;;;;;;50.83;29.03;;;;;;;;;;5135557;27;20250;-69
2022/10/18 06:56:40;;;;;;;43.63;29.40;;;;;;;;;;5135677;27;20271;-67
2022/10/18 06:59:06;;;;;;;40.67;28.10;;;;;;;;;;5135521;27;20262;-68
2022/10/18 07:01:32;;;;;;;45.23;29.13;;;;;;;;;;5135324;27;20176;-67
2022/10/18 07:03:58;;;;;;;52.07;31.50;;;;;;;;;;5117098;27;20227;-67
2022/10/18 07:06:24;;;;;;;45.43;30.80;;;;;;;;;;5135293;27;20240;-67
2022/10/18 07:08:54;;;;;;;53.07;32.87;;;;;;;;;;5135076;27;20654;-66
2022/10/18 07:11:23;;;;;;;53.80;31.80;;;;;;;;;;5134874;27;20685;-66
2022/10/18 07:13:48;;;;;;;54.17;32.17;;;;;;;;;;5116829;27;20560;-68
2022/10/18 07:16:15;;;;;;;54.70;32.50;;;;;;;;;;5135008;27;20198;-68
2022/10/18 07:18:42;;;;;;;52.23;34.17;;;;;;;;;;5116451;27;20175;-68
2022/10/18 07:21:10;;;;;;;62.33;36.20;;;;;;;;;;5116396;27;20175;-67
2022/10/18 07:23:36;;;;;;;61.50;34.17;;;;;;;;;;5116328;27;20176;-67
2022/10/18 07:26:03;;;;;;;62.53;36.57;;;;;;;;;;5134562;27;20207;-68
2022/10/18 07:28:29;;;;;;;63.23;37.13;;;;;;;;;;5116240;27;20172;-67
2022/10/18 07:30:55;;;;;;;62.27;36.43;;;;;;;;;;5134580;27;20196;-67
2022/10/18 07:33:22;;;;;;;61.80;36.67;;;;;;;;;;5134517;27;20172;-67
2022/10/18 07:35:48;;;;;;;59.50;38.07;;;;;;;;;;5134432;27;20203;-67
2022/10/18 07:38:14;;;;;;;69.77;39.70;;;;;;;;;;5116063;27;20187;-67
2022/10/18 07:40:40;;;;;;;69.80;39.73;;;;;;;;;;5134373;27;20178;-66
2022/10/18 07:43:06;;;;;;;62.73;38.57;;;;;;;;;;5134404;27;20205;-66
2022/10/18 07:45:32;;;;;;;61.87;38.63;;;;;;;;;;5115935;27;20188;-67
2022/10/18 07:47:58;;;;;;;64.50;39.00;;;;;;;;;;5134294;27;20611;-67
2022/10/18 07:50:24;;;;;;;65.43;37.40;;;;;;;;;;5134532;27;20174;-67
2022/10/18 07:52:50;;;;;;;62.53;37.07;;;;;;;;;;5134473;27;20232;-67
2022/10/18 07:55:16;;;;;;;63.57;38.03;;;;;;;;;;5115845;27;20195;-67
2022/10/18 07:57:42;;;;;;;59.40;37.47;;;;;;;;;;5115384;28;20176;-67
2022/10/18 08:00:08;;;;;;;62.73;38.97;;;;;;;;;;5134407;27;20635;-67
2022/10/18 08:02:34;;;;;;;67.90;38.17;;;;;;;;;;5115685;28;20560;-67
2022/10/18 08:05:00;;;;;;;61.87;38.77;;;;;;;;;;5134022;27;20200;-66
2022/10/18 08:07:26;;;;;;;58.27;36.57;;;;;;;;;;5115625;28;20183;-67
2022/10/18 08:09:52;;;;;;;63.67;37.77;;;;;;;;;;5115754;28;20186;-65
2022/10/18 08:12:18;;;;;;;61.13;39.03;;;;;;;;;;5115768;28;20210;-65
2022/10/18 08:14:44;;;;;;;64.30;37.53;;;;;;;;;;5134439;28;20196;-66
2022/10/18 08:17:10;;;;;;;60.10;37.97;;;;;;;;;;5115860;28;20232;-66
2022/10/18 08:19:36;;;;;;;60.87;37.70;;;;;;;;;;5134612;28;20183;-66
2022/10/18 08:22:01;;;;;;;68.30;38.93;;;;;;;;;;5134462;28;20176;-65
2022/10/18 08:24:27;;;;;;;65.20;39.67;;;;;;;;;;5115659;28;20187;-66
2022/10/18 08:26:53;;;;;;;69.73;38.93;;;;;;;;;;5115545;28;20187;-67
2022/10/18 08:29:19;;;;;;;68.53;41.37;;;;;;;;;;5134220;28;20190;-66
2022/10/18 08:31:45;;;;;;;71.27;41.23;;;;;;;;;;5115378;28;20290;-67
2022/10/18 08:34:11;;;;;;;68.03;41.73;;;;;;;;;;5115411;28;20632;-67
2022/10/18 08:36:37;;;;;;;74.07;41.90;;;;;;;;;;5133747;28;20282;-67
2022/10/18 08:39:03;;;;;;;68.30;41.53;;;;;;;;;;5134165;28;20194;-67
2022/10/18 08:41:29;;;;;;;68.43;40.80;;;;;;;;;;5133828;28;20179;-67
2022/10/18 08:44:05;;;;;;;76.63;43.60;;;;;;;;;;5133770;28;20176;-67
2022/10/18 08:46:35;;;;;;;72.50;41.57;;;;;;;;;;5133635;28;20195;-67
2022/10/18 08:49:01;;;;;;;73.73;42.20;;;;;;;;;;5115230;28;20632;-67
2022/10/18 08:51:34;;;;;;;70.67;41.87;;;;;;;;;;5115224;28;20795;-67
2022/10/18 08:54:04;;;;;;;74.30;42.57;;;;;;;;;;5133656;28;20172;-67
2022/10/18 08:56:31;;;;;;;78.63;44.00;;;;;;;;;;5133934;28;20214;-67
2022/10/18 08:58:57;;;;;;;70.57;41.53;;;;;;;;;;5133907;28;20183;-67
2022/10/18 09:01:29;;;;;;;72.27;41.43;;;;;;;;;;5115106;28;20184;-67
2022/10/18 09:04:13;;;;;;;75.67;41.57;;;;;;;;;;5133565;28;20628;-67
2022/10/18 09:06:42;;;;;;;78.73;42.50;;;;;;;;;;5133667;28;20252;-67
2022/10/18 09:09:27;;;;;;;69.37;39.80;;;;;;;;;;5115109;27;20184;-67
2022/10/18 09:12:11;;;;;;;72.80;41.17;;;;;;;;;;5137040;27;20196;-67
2022/10/18 09:14:56;;;;;;;81.23;43.60;;;;;;;;;;5137460;27;20192;-67
2022/10/18 09:17:38;;;;;;;79.63;43.97;;;;;;;;;;5137172;27;20175;-67
2022/10/18 09:20:14;;;;;;;80.33;41.90;;;;;;;;;;5137352;27;20164;-67
2022/10/18 09:22:54;;;;;;;90.80;47.47;;;;;;;;;;5118761;27;20175;-67
2022/10/18 09:25:23;;;;;;;82.30;46.97;;;;;;;;;;5137086;27;20204;-68
2022/10/18 09:27:54;;;;;;;88.60;48.33;;;;;;;;;;5118534;27;20183;-67
2022/10/18 09:30:23;;;;;;;90.47;47.97;;;;;;;;;;5118566;27;20187;-67
2022/10/18 09:32:49;;;;;;;96.87;52.23;;;;;;;;;;5136873;27;20282;-67
2022/10/18 09:35:30;;;;;;;90.20;49.93;;;;;;;;;;5136817;27;20235;-67
2022/10/18 09:38:01;;;;;;;78.33;43.67;;;;;;;;;;5118402;27;20174;-67
2022/10/18 09:40:29;;;;;;;66.17;38.77;;;;;;;;;;5118331;27;20164;-67
2022/10/18 09:43:00;;;;;;;62.47;39.07;;;;;;;;;;5136720;27;20180;-67
2022/10/18 09:45:31;;;;;;;66.93;37.57;;;;;;;;;;5118130;27;20256;-67
2022/10/18 09:47:57;;;;;;;64.83;37.73;;;;;;;;;;5118102;27;20222;-67
2022/10/18 09:50:26;;;;;;;55.83;32.07;;;;;;;;;;5118095;27;20183;-67
2022/10/18 09:53:11;;;;;;;46.50;29.97;;;;;;;;;;5136367;27;20207;-67
2022/10/18 09:55:41;;;;;;;45.00;28.33;;;;;;;;;;5159233;22;20227;-66
2022/10/18 09:58:09;;;;;;;50.67;28.70;;;;;;;;;;5136333;27;20171;-65
2022/10/18 10:00:40;;;;;;;49.07;30.43;;;;;;;;;;5136244;27;20198;-66
2022/10/18 10:03:11;;;;;;;43.20;29.13;;;;;;;;;;5136475;27;20167;-65
2022/10/18 10:05:37;;;;;;;45.90;29.33;;;;;;;;;;5123030;27;20199;-66
2022/10/18 10:08:03;;;;;;;46.57;29.63;;;;;;;;;;5136564;27;20180;-66
2022/10/18 10:10:30;;;;;;;57.33;35.83;;;;;;;;;;5135911;27;20168;-66
2022/10/18 10:13:04;;;;;;;56.93;34.53;;;;;;;;;;5136409;27;20171;-66
2022/10/18 10:15:30;;;;;;;55.77;33.93;;;;;;;;;;5136124;27;20275;-66
2022/10/18 10:18:15;;;;;;;54.63;34.50;;;;;;;;;;5136006;27;20204;-65
2022/10/18 10:20:43;;;;;;;53.50;35.10;;;;;;;;;;5135483;27;20217;-66
2022/10/18 10:23:24;;;;;;;53.23;34.93;;;;;;;;;;5135917;27;20246;-66
2022/10/18 10:25:55;;;;;;;45.60;32.33;;;;;;;;;;5135797;27;20198;-66
2022/10/18 10:28:23;;;;;;;44.00;30.53;;;;;;;;;;5117436;27;20167;-66
2022/10/18 10:30:49;;;;;;;48.07;29.83;;;;;;;;;;5136066;27;20325;-66
2022/10/18 10:33:32;;;;;;;44.57;30.20;;;;;;;;;;5135676;27;20168;-66
2022/10/18 10:35:59;;;;;;;45.93;28.17;;;;;;;;;;5117499;27;20192;-66
2022/10/18 10:38:26;;;;;;;45.63;29.77;;;;;;;;;;5135773;27;20176;-66
2022/10/18 10:40:52;;;;;;;45.83;28.47;;;;;;;;;;5117253;27;20712;-66
2022/10/18 10:43:23;;;;;;;38.73;27.20;;;;;;;;;;5136104;27;20199;-67
2022/10/18 10:45:57;;;;;;;41.97;27.70;;;;;;;;;;5135867;27;20231;-68
2022/10/18 10:48:24;;;;;;;36.47;27.33;;;;;;;;;;5117011;27;20187;-65
2022/10/18 10:50:56;;;;;;;36.87;27.57;;;;;;;;;;5117155;27;20211;-67
2022/10/18 10:53:28;;;;;;;37.37;26.27;;;;;;;;;;5136734;27;20485;-66
2022/10/18 10:55:55;;;;;;;35.17;25.17;;;;;;;;;;5135283;27;20298;-66
2022/10/18 10:58:22;;;;;;;29.00;20.57;;;;;;;;;;5117133;27;20175;-66
2022/10/18 11:00:48;;;;;;;29.43;20.63;;;;;;;;;;5135184;27;20640;-66
2022/10/18 11:03:15;;;;;;;26.57;17.33;;;;;;;;;;5135921;27;20229;-66
2022/10/18 11:05:42;;;;;;;24.03;15.07;;;;;;;;;;5116867;27;20545;-67
2022/10/18 11:08:09;;;;;;;26.03;15.73;;;;;;;;;;5135396;27;20171;-69
2022/10/18 11:10:38;;;;;;;22.37;15.67;;;;;;;;;;5116809;27;20523;-69
2022/10/18 11:13:17;;;;;;;22.17;14.43;;;;;;;;;;5116840;27;20180;-68
2022/10/18 11:15:45;;;;;;;23.50;15.87;;;;;;;;;;5116354;27;20206;-67
2022/10/18 11:18:26;;;;;;;23.47;15.73;;;;;;;;;;5134855;27;20174;-67
2022/10/18 11:20:55;;;;;;;19.33;14.17;;;;;;;;;;5134898;27;20184;-66
2022/10/18 11:23:25;;;;;;;23.90;14.30;;;;;;;;;;5134705;27;20180;-66
2022/10/18 11:26:02;;;;;;;24.73;14.80;;;;;;;;;;5116159;27;20200;-65
2022/10/18 11:28:48;;;;;;;22.17;14.67;;;;;;;;;;5134846;27;20167;-66
2022/10/18 11:31:14;;;;;;;24.60;14.67;;;;;;;;;;5115457;27;20210;-66
2022/10/18 11:33:48;;;;;;;21.03;13.70;;;;;;;;;;5115515;27;20172;-67
2022/10/18 11:36:20;;;;;;;23.20;12.83;;;;;;;;;;5134936;27;20198;-66
2022/10/18 11:38:55;;;;;;;21.77;13.87;;;;;;;;;;5134678;27;20175;-65
2022/10/18 11:41:41;;;;;;;22.67;13.27;;;;;;;;;;5134622;27;20296;-67
2022/10/18 11:44:27;;;;;;;22.40;13.83;;;;;;;;;;5116368;27;20551;-67
2022/10/18 11:46:52;;;;;;;20.63;13.17;;;;;;;;;;5134322;27;20162;-66
2022/10/18 11:49:27;;;;;;;25.53;12.90;;;;;;;;;;5115916;27;20183;-66
2022/10/18 11:52:22;;;;;;;20.43;13.20;;;;;;;;;;5134652;27;20205;-67
2022/10/18 11:54:58;;;;;;;21.67;14.23;;;;;;;;;;5044403;28;20718;-67
2022/10/18 11:57:37;;;;;;;26.70;14.80;;;;;;;;;;5134501;27;20159;-66
2022/10/18 12:00:12;;;;;;;26.77;16.27;;;;;;;;;;5134054;27;20175;-65
2022/10/18 12:02:48;;;;;;;24.63;14.83;;;;;;;;;;5134480;27;20640;-69
2022/10/18 12:05:14;;;;;;;22.67;13.07;;;;;;;;;;5134118;27;20195;-66
2022/10/18 12:07:47;;;;;;;21.87;12.57;;;;;;;;;;5134063;28;20184;-66
2022/10/18 12:10:17;;;;;;;21.67;11.43;;;;;;;;;;5134153;28;20262;-69
2022/10/18 12:12:57;;;;;;;19.37;10.37;;;;;;;;;;5134159;28;20582;-68
2022/10/18 12:15:24;;;;;;;28.37;11.27;;;;;;;;;;5115580;28;20194;-67
2022/10/18 12:17:53;;;;;;;22.63;13.80;;;;;;;;;;5115667;28;20182;-67
2022/10/18 12:20:31;;;;;;;24.67;14.60;;;;;;;;;;5134597;28;20579;-67
2022/10/18 12:23:03;;;;;;;28.30;13.43;;;;;;;;;;5115652;28;20186;-67
2022/10/18 12:25:31;;;;;;;20.93;11.53;;;;;;;;;;5134001;28;20200;-67
2022/10/18 12:28:00;;;;;;;18.20;10.43;;;;;;;;;;5134061;28;20245;-67
2022/10/18 12:30:30;;;;;;;24.63;10.47;;;;;;;;;;5115603;28;20180;-68
2022/10/18 12:33:03;;;;;;;19.83;7.30;;;;;;;;;;5115569;28;20203;-69
2022/10/18 12:35:32;;;;;;;25.43;9.40;;;;;;;;;;5134395;28;20693;-68
2022/10/18 12:38:12;;;;;;;21.27;10.53;;;;;;;;;;5134047;28;20183;-68
2022/10/18 12:40:41;;;;;;;24.30;11.33;;;;;;;;;;5134495;28;20221;-68
2022/10/18 12:43:08;;;;;;;19.83;8.93;;;;;;;;;;5133835;28;20174;-67
2022/10/18 12:45:42;;;;;;;17.37;9.40;;;;;;;;;;5137482;27;20730;-68
2022/10/18 12:48:25;;;;;;;24.03;9.20;;;;;;;;;;5102475;27;20252;-68
2022/10/18 12:50:57;;;;;;;23.47;9.17;;;;;;;;;;5119173;27;20167;-67
2022/10/18 12:53:27;;;;;;;18.33;7.63;;;;;;;;;;5119119;27;20277;-68
2022/10/18 12:55:54;;;;;;;18.87;7.60;;;;;;;;;;5119094;27;20211;-67
2022/10/18 12:58:20;;;;;;;16.97;7.07;;;;;;;;;;5137872;27;20164;-67
2022/10/18 13:00:46;;;;;;;20.37;9.27;;;;;;;;;;5137878;27;20179;-68
2022/10/18 13:03:16;;;;;;;21.60;9.07;;;;;;;;;;5137546;27;20168;-67
2022/10/18 13:05:51;;;;;;;13.97;7.70;;;;;;;;;;5119087;27;20311;-68
2022/10/18 13:08:32;;;;;;;16.93;7.80;;;;;;;;;;5119145;27;20175;-68
2022/10/18 13:11:08;;;;;;;17.80;7.27;;;;;;;;;;5137227;27;20188;-67
2022/10/18 13:13:37;;;;;;;13.10;5.97;;;;;;;;;;5137573;27;20250;-68
2022/10/18 13:16:07;;;;;;;13.60;6.47;;;;;;;;;;5137262;27;20207;-68
2022/10/18 13:18:57;;;;;;;16.10;6.53;;;;;;;;;;5118783;27;20236;-68
2022/10/18 13:21:27;;;;;;;15.13;6.17;;;;;;;;;;5126544;27;20223;-68
2022/10/18 13:24:04;;;;;;;17.23;6.73;;;;;;;;;;5137058;27;20175;-68
2022/10/18 13:26:42;;;;;;;14.37;6.57;;;;;;;;;;5118538;27;20168;-68
2022/10/18 13:29:26;;;;;;;17.10;6.80;;;;;;;;;;5118658;27;20183;-68
2022/10/18 13:31:55;;;;;;;18.13;6.97;;;;;;;;;;5118404;27;20195;-68
2022/10/18 13:34:21;;;;;;;16.67;7.20;;;;;;;;;;5137251;27;20180;-68
2022/10/18 13:37:18;;;;;;;14.53;6.53;;;;;;;;;;5136863;27;20250;-67
2022/10/18 13:39:44;;;;;;;13.43;6.40;;;;;;;;;;5137052;27;20175;-67
2022/10/18 13:42:13;;;;;;;16.83;6.07;;;;;;;;;;5118329;27;20190;-68
2022/10/18 13:44:40;;;;;;;15.57;5.60;;;;;;;;;;5136671;27;20199;-69
2022/10/18 13:47:06;;;;;;;11.73;5.47;;;;;;;;;;5118296;27;20267;-68
2022/10/18 13:49:38;;;;;;;18.10;5.70;;;;;;;;;;5136767;27;20239;-68
2022/10/18 13:52:13;;;;;;;11.30;4.80;;;;;;;;;;5118166;27;20210;-68
2022/10/18 13:54:42;;;;;;;14.13;5.63;;;;;;;;;;5136398;27;20211;-68
2022/10/18 13:57:23;;;;;;;13.10;4.60;;;;;;;;;;5136386;27;20164;-68
2022/10/18 14:00:08;;;;;;;12.73;5.03;;;;;;;;;;5117984;27;20635;-68
2022/10/18 14:02:40;;;;;;;13.37;6.13;;;;;;;;;;5117948;27;20579;-68
2022/10/18 14:05:25;;;;;;;13.83;5.20;;;;;;;;;;5117872;27;20195;-68
2022/10/18 14:07:56;;;;;;;11.67;4.43;;;;;;;;;;5136395;27;20176;-67
2022/10/18 14:10:24;;;;;;;9.43;4.00;;;;;;;;;;5136557;27;20225;-69
2022/10/18 14:12:55;;;;;;;12.50;4.50;;;;;;;;;;5117669;27;20207;-66
2022/10/18 14:15:24;;;;;;;12.17;4.17;;;;;;;;;;5136331;27;20196;-68
2022/10/18 14:17:52;;;;;;;13.00;4.10;;;;;;;;;;5136199;27;20270;-69
2022/10/18 14:20:29;;;;;;;11.77;4.23;;;;;;;;;;5117594;27;20176;-68
2022/10/18 14:23:13;;;;;;;10.70;3.80;;;;;;;;;;5136132;27;20179;-67
2022/10/18 14:25:39;;;;;;;10.33;3.70;;;;;;;;;;5135994;27;20203;-67
2022/10/18 14:28:11;;;;;;;9.20;4.00;;;;;;;;;;5136619;27;20172;-68
2022/10/18 14:30:38;;;;;;;9.50;3.60;;;;;;;;;;5117715;27;20180;-68
2022/10/18 14:33:04;;;;;;;9.93;3.97;;;;;;;;;;5136006;27;20248;-67
2022/10/18 14:35:30;;;;;;;11.37;4.00;;;;;;;;;;5135798;27;20227;-68